EGNMEGHI

Guest
Details From EGNM - Leeds Bradford
To EGHI - Southampton
Flight Number -
Tags decoded
Created
Modified
Stats Distance 195 nm / 361 km
Max Altitude 0 ft / 0 m
Waypoints 5
Social Downloads 6
Likes 0
Share VATSIM

Download

Looking for another format? Having issues loading an existing format? Contact us
Advertisement - Login to hide

Notes

Requested: EGNM POL P17 BARTN UL612 HON EGHI Unmatched points: P17 UL612

Route

EGNM POL BARTN HON EGHI

ID Type Via Altitude Latitude Longitude Leg Dist Tot Dist Heading (true) Name
O EGNM APT - 0 ft / 0 m 53.86603˚ -1.66078˚ - 0 nm - Leeds Bradford
POL VOR - 0 ft / 0 m 53.74389˚ -2.10333˚ 17 nm 17 nm 245° / 245° POLE HILL VOR-DME
BARTN FIX - 0 ft / 0 m 53.47056˚ -2.42806˚ 20 nm 37 nm 215° / 215° -
HON VOR - 0 ft / 0 m 52.35667˚ -1.66361˚ 72 nm 109 nm 157° / 158° HONILEY VOR-DME
O EGHI APT - 0 ft / 0 m 50.95026˚ -1.35681˚ 85 nm 195 nm 172° / 172° Southampton

Altitude Profile

Advertisement - Login to hide

Weather


0- 5 10 15 20 25 30 35+ Temperature / ° C

Clouds and Precipitation
Forecast for 2018-05-27 12:00 UTC. Updated an hour ago

Ground ~20,000 ft ~40,000 ft Winds

EGNM

Details ICAO EGNM (LBA)
Name Leeds Bradford
Region United Kingdom
Timezone Europe/London (UTC+1.0)
Stats Elevation 681 ft / 208 m (AMSL)
Location 53.866027° -1.660778°
Runways 1
Magnetic Variation 1.227° W

METAR

EGNM 271220Z 08015KT CAVOK 22/12 Q1019

Decode

TAF

TAF TAF EGNM 271054Z 2712/2812 08012KT 9999 FEW040 PROB30 TEMPO 2712/2716 08015G25KT PROB30 TEMPO 2715/2724 4000 TSRA BKN008 BKN040CB BECMG 2800/2803 3000 BR BKN004 PROB30 2802/2809 0300 FG BKN000 BECMG 2809/2812 9999 NSW SCT030

Decode

Departure Runways

ID Width Length Bearing (true) Bearing (mag) Surface Threshold Offset Overrun Length
14 151 ft / 46 m 7,377 ft / 2,248 m 137.79° 139.02° Concrete 1,024 ft / 312 m 46 ft / 14 m
32 151 ft / 46 m 7,377 ft / 2,248 m 317.81° 319.04° Concrete 899 ft / 274 m 49 ft / 15 m

EGHI

Details ICAO EGHI (SOU)
Name Southampton
Region United Kingdom
Timezone Europe/London (UTC+1.0)
Stats Elevation 44 ft / 13 m (AMSL)
Location 50.950255° -1.356806°
Runways 1
Magnetic Variation 0.747° W

METAR

EGHI 271220Z VRB01KT 9999 FEW027 SCT034 21/15 Q1015

Decode

TAF

Not found

Destination Runways

ID Width Length Bearing (true) Bearing (mag) Surface Threshold Offset Overrun Length
02 121 ft / 37 m 5,650 ft / 1,722 m 19.33° 20.08° Asphalt 240 ft / 73 m 0 ft / 0 m
20 121 ft / 37 m 5,650 ft / 1,722 m 199.34° 200.09° Asphalt 144 ft / 44 m 0 ft / 0 m

Approach Navaids

Runway Type Ident Frequency Range Bearing (true) Bearing (mag) Slope Elevation
20 Localiser ISN 110.75 MHz 18 nm / 33 km 199.34° 200.08° - 44 ft / 13 m (AMSL)
20 Glidescope ISN 110.75 MHz 10 nm / 19 km 199.34° 200.08° 3.10° 44 ft / 13 m (AMSL)
20 DME ISN 110.75 MHz 18 nm / 33 km - - - 54 ft / 16 m (AMSL)

Popular Alternatives